Ευχαριστούμε που συμβάλλετε στη διατήρηση της σελίδας μας.

Thank you for your donations, it really helps to maintain the page.


Στατιστικά Καιρού & Άλλα..









Δείκτης Πυρκαγιάς (FWI)

Καστελόκαμπος Ρίον more information Kastelokampos Rion


Κάμερα Ρομανού more information Romanos Cam


προειδοποίηση για Καταιγίδες more information blitzortung!


Ραντάρ Βροχής more information rain snow radar


Επισκεφθείτε άλλες ιστοσελίδες καιρού μας:

Meteopatras.Eu in
Euweather NetworkMeteopatras.Eu in Euweather Network

Weather CloudWeather Cloud

PWS WeatherPWS Weather

Awekas NetWeather data from station Patra-Ketx

WunderGroundWeather data from station Patra-Ketx



Καταιγίδες Από : 24-05-2019 11:00 Μέχρι : 20:00 προειδοποίηση για : Καταιγίδες Επίπεδο : Κίτρινο info button

Ιδιοκτησία και Επίβλεψη : Μουλάς Αντρέας

 Πάτρα, Ελλάδα - Γ.Πλάτος : 38°14'21" Β - Γ.Μήκος : 21°45'5" Α - Υψόμετρο : 56μ

Select another period ( hide this area )

Μονάδες Περίοδο Custom range Directly to
Μετρικό Αγγλικό Και τα δύο
Καθημερινά Εβδομαδιαία Μηνιαία Ετήσια
use both date-selectors for a custom range
previous Ημέρα
With this date

WeatherUnderground graphs for this period ( click here )


Καθημερινά Περίληψη για Παρασκευή 24 Μαι 2019
Ώρα Temp. ( °C ) Dew pt. ( °C ) Άνεμος ( km/h ) απο Ριπή ( km/h ) Πίεση ( hPa ) Humid.( % ) Rainrate ( cm ) Solar ( W/m2 )
Υψηλή20,7 14,0 9,3 Νότος ( 125/501 ) 16,7 1012,3 81 - 786
Μέση Τιμή17,9 13,1 3,9 Νότος #45/130 6,9 1011,7 74 - 248 #54/130
Χαμηλή16,4 12,0 -   0,0 1011,1 63 -  
Καθημερινά Tabular details for Παρασκευή 24 Μαι 2019
Ώρα Temp. ( °C ) Dew pt. ( °C ) Άνεμος ( km/h ) απο Ριπή ( km/h ) Πίεση ( hPa ) Humid.( % ) Rainrate ( cm ) Solar ( W/m2 )
00:04 18,3 12,7 1,6 ΝΝΔ 4,8 1012,3 70 - -
00:09 18,3 12,7 3,2 ΝΑ 5,6 1012,2 70 - -
00:14 18,2 12,9 2,9 Νότος 5,6 1012,2 71 - -
00:19 18,2 12,9 4,0 ΝΑ 5,6 1012,2 71 - -
00:24 18,2 12,8 4,5 ΝΑ 5,6 1012,2 71 - -
00:29 18,1 12,7 3,4 ΝΑ 4,8 1012,2 71 - -
00:34 18,0 12,7 3,9 ΝΑ 5,6 1012,2 71 - -
00:39 17,8 12,5 2,7 ΝΑ 5,6 1012,2 71 - -
00:44 17,8 12,4 2,7 ΝΑ 5,6 1012,2 71 - -
00:49 17,7 12,3 4,2 ΝΑ 5,6 1012,2 71 - -
00:54 17,6 12,2 5,1 ΝΝΑ 6,4 1012,1 71 - -
00:59 17,5 12,2 3,5 ΝΑ 5,6 1012,1 71 - -
01:04 17,4 12,1 6,3 ΝΑ 9,3 1012,0 71 - -
01:09 17,4 12,1 6,3 ΑΝΑ 6,4 1011,9 71 - -
01:14 17,3 12,0 3,5 ΝΑ 5,6 1011,9 71 - -
01:19 17,3 12,2 4,5 ΝΝΑ 8,0 1011,8 72 - -
01:24 17,2 12,1 2,6 ΝΝΑ 6,4 1011,8 72 - -
01:29 17,2 12,1 0,8 ΝΑ 5,6 1011,9 72 - -
01:34 17,2 12,1 2,4 Νότος 4,8 1011,9 72 - -
01:39 17,2 12,1 2,1 Νότος 5,6 1011,9 72 - -
01:44 17,2 12,1 3,2 Νότος 5,6 1011,9 72 - -
01:49 17,2 12,3 3,7 Νότος 5,6 1011,8 73 - -
01:54 17,3 12,4 4,7 ΑΝΑ 5,6 1011,8 73 - -
01:59 17,2 12,1 4,2 ΝΑ 5,6 1011,8 72 - -
02:04 17,2 12,1 1,1 ΝΑ 5,6 1011,8 72 - -
02:09 17,1 12,0 1,4 ΝΑ 3,7 1011,7 72 - -
02:14 17,1 12,2 5,3 ΑΝΑ 7,4 1011,6 73 - -
02:19 17,2 12,3 4,8 ΝΑ 6,4 1011,6 73 - -
02:24 17,2 12,3 5,3 ΑΝΑ 9,7 1011,6 73 - -
02:29 17,2 12,3 2,7 Νότος 5,6 1011,6 73 - -
02:34 17,3 12,6 0,3 Νότος 1,9 1011,7 74 - -
02:39 17,4 12,9 3,4 Νότος 5,6 1011,6 75 - -
02:44 17,4 12,9 4,0 ΝΝΔ 6,4 1011,5 75 - -
02:49 17,5 12,8 3,1 ΝΝΔ 3,7 1011,4 74 - -
02:54 17,6 13,1 2,7 Νότος 3,7 1011,3 75 - -
02:59 17,6 12,9 1,1 Νότος 5,6 1011,2 74 - -
03:04 17,6 12,9 0,8 Νότος 6,4 1011,2 74 - -
03:09 17,5 12,8 1,4 Νότος 5,6 1011,2 74 - -
03:14 17,6 13,1 4,3 Νότος 8,0 1011,2 75 - -
03:19 17,6 13,1 3,5 Νότος 5,6 1011,3 75 - -
03:24 17,6 13,3 2,9 ΝΝΑ 5,6 1011,3 76 - -
03:29 17,6 13,3 3,4 Νότος 5,6 1011,3 76 - -
03:34 17,7 13,6 2,7 Νότος 11,1 1011,2 77 - -
03:39 17,7 13,6 2,4 ΝΝΑ 5,6 1011,2 77 - -
03:44 17,6 13,6 5,3 ΑΝΑ 11,1 1011,2 77 - -
03:49 17,6 13,6 5,0 ΝΝΔ 9,7 1011,1 77 - -
03:54 17,6 13,7 4,5 Νότος 9,3 1011,2 78 - -
03:59 17,6 13,7 5,3 Νότος 9,3 1011,1 78 - -
04:04 17,6 13,6 3,5 Νότος 5,6 1011,2 77 - -
04:09 17,7 13,6 5,3 ΝΝΔ 8,0 1011,3 77 - -
04:14 17,7 13,6 1,4 ΝΝΑ 7,4 1011,3 77 - -
04:19 17,7 13,6 6,9 ΝΝΑ 11,1 1011,3 77 - -
04:24 17,6 13,6 3,1 ΝΝΑ 3,7 1011,3 77 - -
04:29 17,6 13,6 3,1 ΝΝΔ 5,6 1011,1 77 - -
04:34 17,5 13,4 2,7 Νότος 5,6 1011,3 77 - -
04:39 17,5 13,4 1,9 Νότος 3,7 1011,2 77 - -
04:44 17,4 13,4 2,4 Νότος 3,7 1011,2 77 - -
04:49 17,4 13,3 1,9 Νότος 3,7 1011,2 77 - -
04:54 17,4 13,3 1,9 Νότος 3,7 1011,2 77 - -
04:59 17,4 13,3 2,6 Νότος 5,6 1011,2 77 - -
05:04 17,3 13,4 2,9 Νότος 5,6 1011,2 78 - -
05:09 17,3 13,4 3,7 Νότος 5,6 1011,2 78 - -
05:14 17,3 13,4 1,4 Νότος 5,6 1011,2 78 - -
05:19 17,2 13,6 2,7 Νότος 5,6 1011,3 79 - -
05:24 17,1 13,4 2,4 Νότος 4,8 1011,3 79 - -
05:29 17,1 13,4 1,8 Νότος 4,8 1011,3 79 - -
05:34 16,9 13,3 2,7 Νότος 3,7 1011,3 79 - -
05:39 16,9 13,4 0,2 Νότος   1011,4 80 - -
05:44 16,9 13,4 2,6 Νότος 6,4 1011,4 80 - -
05:49 16,8 13,6 4,0 Νότος 5,6 1011,4 81 - -
05:54 16,8 13,6 2,1 Νότος 7,4 1011,4 81 - -
05:59 16,8 13,6   Άπνοια   1011,5 81 - -
06:04 16,8 13,5 1,8 Νότος 5,6 1011,5 81 - -
06:09 16,8 13,5 2,1 Νότος 3,7 1011,5 81 - -
06:14 16,8 13,5 3,1 Νότος 7,4 1011,6 81 - -
06:19 16,7 13,4 3,2 Νότος 5,6 1011,6 81 - -
06:24 16,7 13,4 3,5 Νότος 5,6 1011,7 81 - 5
06:29 16,6 13,3 3,4 Νότος 6,4 1011,7 81 - 7
06:34 16,6 13,3 4,0 Νότος 5,6 1011,7 81 - 9
06:39 16,6 13,3 3,9 ΝΝΑ 5,6 1011,7 81 - 11
06:44 16,5 13,2 2,6 ΝΝΑ 3,7 1011,7 81 - 14
06:49 16,4 13,0 3,2 ΝΝΑ 5,6 1011,6 80 - 18
06:54 16,4 13,0 4,7 ΝΝΑ 6,4 1011,7 80 - 21
06:59 16,4 12,8 3,5 ΝΝΑ 5,6 1011,6 79 - 23
07:04 16,6 12,9 5,1 ΝΝΑ 6,4 1011,7 79 - 25
07:09 16,7 12,6 4,0 ΝΑ 5,6 1011,7 77 - 30
07:14 16,8 12,6 4,7 ΝΑ 6,4 1011,7 76 - 33
07:19 16,9 12,5 2,3 ΝΑ 3,7 1011,7 75 - 33
07:24 17,1 12,4 3,5 ΝΑ 5,6 1011,7 74 - 33
07:29 17,2 12,6 2,9 ΝΑ 5,6 1011,7 74 - 53
07:34 17,4 12,5 4,2 ΝΑ 6,4 1011,7 73 - 74
07:39 17,6 12,4 3,4 ΝΑ 5,6 1011,8 72 - 102
07:44 17,7 12,6 4,3 ΝΑ 5,6 1011,8 72 - 135
07:49 17,9 12,8 6,0 ΝΑ 8,0 1011,9 72 - 81
07:54 18,0 12,9 4,2 ΝΑ 6,4 1011,9 72 - 69
07:59 17,9 12,8 3,2 ΝΑ 5,6 1011,9 72 - 83
08:04 18,0 13,3 2,4 ΝΑ 3,7 1011,9 74 - 113
08:09 18,2 13,5 3,1 ΝΝΔ 5,6 1011,9 74 - 265
08:14 18,3 13,8 2,9 ΝΝΔ 7,4 1012,0 75 - 160
08:19 18,4 13,7 5,5 ΝΝΔ 11,3 1012,0 74 - 262
08:24 18,4 13,7 3,2 ΝΝΔ 13,0 1012,0 74 - 309
08:29 18,6 13,6 6,4 ΝΝΔ 9,3 1012,0 73 - 346
08:34 18,7 13,7 3,5 Νότος 9,3 1012,0 73 - 385
08:39 18,9 14,0 5,5 ΝΔ 9,3 1012,0 73 - 374
08:44 19,1 13,9 4,7 ΝΝΑ 9,3 1011,9 72 - 413
08:49 19,2 13,8 6,4 ΝΔ 11,3 1012,0 71 - 385
08:54 19,3 13,7 5,8 ΝΝΑ 6,4 1012,0 70 - 158
08:59 19,3 13,4 5,8 ΝΔ 9,3 1012,0 69 - 207
09:04 19,2 13,6 6,8 ΝΝΔ 9,3 1012,1 70 - 492
09:09 19,2 13,6 8,5 ΝΝΔ 16,7 1012,1 70 - 98
09:14 18,9 13,5 6,8 ΝΝΔ 11,1 1012,2 71 - 100
09:19 18,6 13,7 9,3 ΝΔ 13,0 1012,2 73 - 90
09:24 18,4 13,5 6,8 ΝΝΔ 13,0 1012,2 73 - 77
09:29 18,4 13,4 6,9 Νότος 14,8 1012,3 73 - 90
09:34 18,4 13,5 6,4 ΝΔ 11,1 1012,3 73 - 563
09:39 18,7 13,8 4,8 ΔΝΔ 6,4 1012,3 73 - 580
09:44 19,2 13,8 2,4 ΝΔ 5,6 1012,3 71 - 559
09:49 19,6 13,7 9,0 ΝΝΔ 14,8 1012,3 69 - 559
09:54 19,9 13,6 4,8 ΝΔ 5,6 1012,3 67 - 592
09:59 20,2 13,6 6,4 ΝΔ 13,0 1012,3 66 - 615
10:04 20,2 13,4 6,4 ΔΝΔ 9,3 1012,3 65 - 635
10:09 20,2 13,1 4,0 ΝΔ 9,3 1012,3 64 - 606
10:14 20,3 13,2 2,9 ΝΝΔ 11,1 1012,3 64 - 657
10:19 20,6 13,3 8,4 ΝΔ 13,0 1012,3 63 - 687
10:24 20,7 13,4 4,8 ΝΔ 5,6 1012,3 63 - 272
10:29 20,7 13,6 4,7 ΝΔ 9,7 1012,3 64 - 160
10:34 20,4 13,8 5,6 ΔΝΔ 12,9 1012,3 66 - 179
10:39 20,2 13,9 3,9 ΝΔ 6,4 1012,3 67 - 244
10:44 20,1 13,3 6,3 ΔΝΔ 12,9 1012,3 65 - 504
10:49 20,2 13,4 6,8 ΝΔ 11,3 1012,2 65 - 786
Καθημερινά Περίληψη για Παρασκευή 24 Μαι 2019
Ώρα Temp. ( °C ) Dew pt. ( °C ) Άνεμος ( km/h ) απο Ριπή ( km/h ) Πίεση ( hPa ) Humid.( % ) Rainrate ( cm ) Solar ( W/m2 )
Υψηλή20,7 14,0 9,3 Νότος ( 125/501 ) 16,7 1012,3 81 - 786
Μέση Τιμή17,9 13,1 3,9 Νότος #45/130 6,9 1011,7 74 - 248 #54/130
Χαμηλή16,4 12,0 -   0,0 1011,1 63 -  
Καθημερινά Tabular details for Παρασκευή 24 Μαι 2019
Ώρα Temp. ( °C ) Dew pt. ( °C ) Άνεμος ( km/h ) απο Ριπή ( km/h ) Πίεση ( hPa ) Humid.( % ) Rainrate ( cm ) Solar ( W/m2 )
00:04 18,3 12,7 1,6 ΝΝΔ 4,8 1012,3 70 - -
00:09 18,3 12,7 3,2 ΝΑ 5,6 1012,2 70 - -
00:14 18,2 12,9 2,9 Νότος 5,6 1012,2 71 - -
00:19 18,2 12,9 4,0 ΝΑ 5,6 1012,2 71 - -
00:24 18,2 12,8 4,5 ΝΑ 5,6 1012,2 71 - -
00:29 18,1 12,7 3,4 ΝΑ 4,8 1012,2 71 - -
00:34 18,0 12,7 3,9 ΝΑ 5,6 1012,2 71 - -
00:39 17,8 12,5 2,7 ΝΑ 5,6 1012,2 71 - -
00:44 17,8 12,4 2,7 ΝΑ 5,6 1012,2 71 - -
00:49 17,7 12,3 4,2 ΝΑ 5,6 1012,2 71 - -
00:54 17,6 12,2 5,1 ΝΝΑ 6,4 1012,1 71 - -
00:59 17,5 12,2 3,5 ΝΑ 5,6 1012,1 71 - -
01:04 17,4 12,1 6,3 ΝΑ 9,3 1012,0 71 - -
01:09 17,4 12,1 6,3 ΑΝΑ 6,4 1011,9 71 - -
01:14 17,3 12,0 3,5 ΝΑ 5,6 1011,9 71 - -
01:19 17,3 12,2 4,5 ΝΝΑ 8,0 1011,8 72 - -
01:24 17,2 12,1 2,6 ΝΝΑ 6,4 1011,8 72 - -
01:29 17,2 12,1 0,8 ΝΑ 5,6 1011,9 72 - -
01:34 17,2 12,1 2,4 Νότος 4,8 1011,9 72 - -
01:39 17,2 12,1 2,1 Νότος 5,6 1011,9 72 - -
01:44 17,2 12,1 3,2 Νότος 5,6 1011,9 72 - -
01:49 17,2 12,3 3,7 Νότος 5,6 1011,8 73 - -
01:54 17,3 12,4 4,7 ΑΝΑ 5,6 1011,8 73 - -
01:59 17,2 12,1 4,2 ΝΑ 5,6 1011,8 72 - -
02:04 17,2 12,1 1,1 ΝΑ 5,6 1011,8 72 - -
02:09 17,1 12,0 1,4 ΝΑ 3,7 1011,7 72 - -
02:14 17,1 12,2 5,3 ΑΝΑ 7,4 1011,6 73 - -
02:19 17,2 12,3 4,8 ΝΑ 6,4 1011,6 73 - -
02:24 17,2 12,3 5,3 ΑΝΑ 9,7 1011,6 73 - -
02:29 17,2 12,3 2,7 Νότος 5,6 1011,6 73 - -
02:34 17,3 12,6 0,3 Νότος 1,9 1011,7 74 - -
02:39 17,4 12,9 3,4 Νότος 5,6 1011,6 75 - -
02:44 17,4 12,9 4,0 ΝΝΔ 6,4 1011,5 75 - -
02:49 17,5 12,8 3,1 ΝΝΔ 3,7 1011,4 74 - -
02:54 17,6 13,1 2,7 Νότος 3,7 1011,3 75 - -
02:59 17,6 12,9 1,1 Νότος 5,6 1011,2 74 - -
03:04 17,6 12,9 0,8 Νότος 6,4 1011,2 74 - -
03:09 17,5 12,8 1,4 Νότος 5,6 1011,2 74 - -
03:14 17,6 13,1 4,3 Νότος 8,0 1011,2 75 - -
03:19 17,6 13,1 3,5 Νότος 5,6 1011,3 75 - -
03:24 17,6 13,3 2,9 ΝΝΑ 5,6 1011,3 76 - -
03:29 17,6 13,3 3,4 Νότος 5,6 1011,3 76 - -
03:34 17,7 13,6 2,7 Νότος 11,1 1011,2 77 - -
03:39 17,7 13,6 2,4 ΝΝΑ 5,6 1011,2 77 - -
03:44 17,6 13,6 5,3 ΑΝΑ 11,1 1011,2 77 - -
03:49 17,6 13,6 5,0 ΝΝΔ 9,7 1011,1 77 - -
03:54 17,6 13,7 4,5 Νότος 9,3 1011,2 78 - -
03:59 17,6 13,7 5,3 Νότος 9,3 1011,1 78 - -
04:04 17,6 13,6 3,5 Νότος 5,6 1011,2 77 - -
04:09 17,7 13,6 5,3 ΝΝΔ 8,0 1011,3 77 - -
04:14 17,7 13,6 1,4 ΝΝΑ 7,4 1011,3 77 - -
04:19 17,7 13,6 6,9 ΝΝΑ 11,1 1011,3 77 - -
04:24 17,6 13,6 3,1 ΝΝΑ 3,7 1011,3 77 - -
04:29 17,6 13,6 3,1 ΝΝΔ 5,6 1011,1 77 - -
04:34 17,5 13,4 2,7 Νότος 5,6 1011,3 77 - -
04:39 17,5 13,4 1,9 Νότος 3,7 1011,2 77 - -
04:44 17,4 13,4 2,4 Νότος 3,7 1011,2 77 - -
04:49 17,4 13,3 1,9 Νότος 3,7 1011,2 77 - -
04:54 17,4 13,3 1,9 Νότος 3,7 1011,2 77 - -
04:59 17,4 13,3 2,6 Νότος 5,6 1011,2 77 - -
05:04 17,3 13,4 2,9 Νότος 5,6 1011,2 78 - -
05:09 17,3 13,4 3,7 Νότος 5,6 1011,2 78 - -
05:14 17,3 13,4 1,4 Νότος 5,6 1011,2 78 - -
05:19 17,2 13,6 2,7 Νότος 5,6 1011,3 79 - -
05:24 17,1 13,4 2,4 Νότος 4,8 1011,3 79 - -
05:29 17,1 13,4 1,8 Νότος 4,8 1011,3 79 - -
05:34 16,9 13,3 2,7 Νότος 3,7 1011,3 79 - -
05:39 16,9 13,4 0,2 Νότος   1011,4 80 - -
05:44 16,9 13,4 2,6 Νότος 6,4 1011,4 80 - -
05:49 16,8 13,6 4,0 Νότος 5,6 1011,4 81 - -
05:54 16,8 13,6 2,1 Νότος 7,4 1011,4 81 - -
05:59 16,8 13,6   Άπνοια   1011,5 81 - -
06:04 16,8 13,5 1,8 Νότος 5,6 1011,5 81 - -
06:09 16,8 13,5 2,1 Νότος 3,7 1011,5 81 - -
06:14 16,8 13,5 3,1 Νότος 7,4 1011,6 81 - -
06:19 16,7 13,4 3,2 Νότος 5,6 1011,6 81 - -
06:24 16,7 13,4 3,5 Νότος 5,6 1011,7 81 - 5
06:29 16,6 13,3 3,4 Νότος 6,4 1011,7 81 - 7
06:34 16,6 13,3 4,0 Νότος 5,6 1011,7 81 - 9
06:39 16,6 13,3 3,9 ΝΝΑ 5,6 1011,7 81 - 11
06:44 16,5 13,2 2,6 ΝΝΑ 3,7 1011,7 81 - 14
06:49 16,4 13,0 3,2 ΝΝΑ 5,6 1011,6 80 - 18
06:54 16,4 13,0 4,7 ΝΝΑ 6,4 1011,7 80 - 21
06:59 16,4 12,8 3,5 ΝΝΑ 5,6 1011,6 79 - 23
07:04 16,6 12,9 5,1 ΝΝΑ 6,4 1011,7 79 - 25
07:09 16,7 12,6 4,0 ΝΑ 5,6 1011,7 77 - 30
07:14 16,8 12,6 4,7 ΝΑ 6,4 1011,7 76 - 33
07:19 16,9 12,5 2,3 ΝΑ 3,7 1011,7 75 - 33
07:24 17,1 12,4 3,5 ΝΑ 5,6 1011,7 74 - 33
07:29 17,2 12,6 2,9 ΝΑ 5,6 1011,7 74 - 53
07:34 17,4 12,5 4,2 ΝΑ 6,4 1011,7 73 - 74
07:39 17,6 12,4 3,4 ΝΑ 5,6 1011,8 72 - 102
07:44 17,7 12,6 4,3 ΝΑ 5,6 1011,8 72 - 135
07:49 17,9 12,8 6,0 ΝΑ 8,0 1011,9 72 - 81
07:54 18,0 12,9 4,2 ΝΑ 6,4 1011,9 72 - 69
07:59 17,9 12,8 3,2 ΝΑ 5,6 1011,9 72 - 83
08:04 18,0 13,3 2,4 ΝΑ 3,7 1011,9 74 - 113
08:09 18,2 13,5 3,1 ΝΝΔ 5,6 1011,9 74 - 265
08:14 18,3 13,8 2,9 ΝΝΔ 7,4 1012,0 75 - 160
08:19 18,4 13,7 5,5 ΝΝΔ 11,3 1012,0 74 - 262
08:24 18,4 13,7 3,2 ΝΝΔ 13,0 1012,0 74 - 309
08:29 18,6 13,6 6,4 ΝΝΔ 9,3 1012,0 73 - 346
08:34 18,7 13,7 3,5 Νότος 9,3 1012,0 73 - 385
08:39 18,9 14,0 5,5 ΝΔ 9,3 1012,0 73 - 374
08:44 19,1 13,9 4,7 ΝΝΑ 9,3 1011,9 72 - 413
08:49 19,2 13,8 6,4 ΝΔ 11,3 1012,0 71 - 385
08:54 19,3 13,7 5,8 ΝΝΑ 6,4 1012,0 70 - 158
08:59 19,3 13,4 5,8 ΝΔ 9,3 1012,0 69 - 207
09:04 19,2 13,6 6,8 ΝΝΔ 9,3 1012,1 70 - 492
09:09 19,2 13,6 8,5 ΝΝΔ 16,7 1012,1 70 - 98
09:14 18,9 13,5 6,8 ΝΝΔ 11,1 1012,2 71 - 100
09:19 18,6 13,7 9,3 ΝΔ 13,0 1012,2 73 - 90
09:24 18,4 13,5 6,8 ΝΝΔ 13,0 1012,2 73 - 77
09:29 18,4 13,4 6,9 Νότος 14,8 1012,3 73 - 90
09:34 18,4 13,5 6,4 ΝΔ 11,1 1012,3 73 - 563
09:39 18,7 13,8 4,8 ΔΝΔ 6,4 1012,3 73 - 580
09:44 19,2 13,8 2,4 ΝΔ 5,6 1012,3 71 - 559
09:49 19,6 13,7 9,0 ΝΝΔ 14,8 1012,3 69 - 559
09:54 19,9 13,6 4,8 ΝΔ 5,6 1012,3 67 - 592
09:59 20,2 13,6 6,4 ΝΔ 13,0 1012,3 66 - 615
10:04 20,2 13,4 6,4 ΔΝΔ 9,3 1012,3 65 - 635
10:09 20,2 13,1 4,0 ΝΔ 9,3 1012,3 64 - 606
10:14 20,3 13,2 2,9 ΝΝΔ 11,1 1012,3 64 - 657
10:19 20,6 13,3 8,4 ΝΔ 13,0 1012,3 63 - 687
10:24 20,7 13,4 4,8 ΝΔ 5,6 1012,3 63 - 272
10:29 20,7 13,6 4,7 ΝΔ 9,7 1012,3 64 - 160
10:34 20,4 13,8 5,6 ΔΝΔ 12,9 1012,3 66 - 179
10:39 20,2 13,9 3,9 ΝΔ 6,4 1012,3 67 - 244
10:44 20,1 13,3 6,3 ΔΝΔ 12,9 1012,3 65 - 504
10:49 20,2 13,4 6,8 ΝΔ 11,3 1012,2 65 - 786

Download your copy of this data-set  here

Our weather-data as stored at Weather Underground. Script developed by Jim McMurry. Προσαρμοσμένος για το πρότυπο του Leuven-Template.eu

Μπορείτε να βρείτε πληροφορίες καιρού μας και σε:

European Weather Network

WeatherCloud

Weather Underground

Δύκτιο Σταθμών Ελλάδας

AWEKAS

HAMweather, WeatherForYou, PWS Weather

MeteoPatras.Eu